Time;durP1;ratioP1;P1;durP2;ratioP2;P2;SDS_P1;SDS_P2;PMS_P1;PMS_P2;Temp;Humidity;BMP_temperature;BMP_pressure;BME280_temperature;BME280_humidity;BME280_pressure;Samples;Min_cycle;Max_cycle;Signal;HPM_P1;HPM_P2
2023/12/24 00:00:20;;;;;;;2.70;1.70;;;3.00;99.90;;;;;;4937261;28;20578;-55
2023/12/24 00:02:46;;;;;;;1.57;1.47;;;3.00;99.90;;;;;;4936888;28;20209;-54
2023/12/24 00:05:12;;;;;;;2.30;1.40;;;3.00;99.90;;;;;;4944491;28;21117;-54
2023/12/24 00:07:37;;;;;;;1.47;1.37;;;3.00;99.90;;;;;;4946691;28;20229;-54
2023/12/24 00:10:03;;;;;;;1.43;1.33;;;3.00;99.90;;;;;;4940681;28;20207;-54
2023/12/24 00:12:29;;;;;;;2.03;1.07;;;3.00;99.90;;;;;;4942353;28;20208;-54
2023/12/24 00:14:55;;;;;;;1.47;1.37;;;3.00;99.90;;;;;;4941135;28;20266;-63
2023/12/24 00:17:20;;;;;;;1.43;1.33;;;3.00;99.90;;;;;;4938805;28;20215;-63
2023/12/24 00:19:46;;;;;;;1.30;1.20;;;3.00;99.90;;;;;;4938972;28;20599;-55
2023/12/24 00:22:12;;;;;;;2.23;1.30;;;2.90;99.90;;;;;;4932118;28;20213;-54
2023/12/24 00:24:37;;;;;;;1.00;1.00;;;2.80;99.90;;;;;;4936070;28;20229;-64
2023/12/24 00:27:03;;;;;;;2.67;1.20;;;2.80;99.90;;;;;;4935734;28;20298;-54
2023/12/24 00:29:29;;;;;;;1.10;1.10;;;2.90;99.90;;;;;;4936558;28;20262;-72
2023/12/24 00:31:54;;;;;;;1.60;1.50;;;3.00;99.90;;;;;;4927206;28;20197;-62
2023/12/24 00:34:20;;;;;;;1.83;1.73;;;3.00;99.90;;;;;;4937046;28;20204;-64
2023/12/24 00:36:45;;;;;;;1.03;1.03;;;2.90;99.90;;;;;;4931928;28;20202;-55
2023/12/24 00:39:11;;;;;;;1.30;1.20;;;2.90;99.90;;;;;;4935815;28;20205;-56
2023/12/24 00:41:40;;;;;;;1.17;1.13;;;2.90;99.90;;;;;;4935697;28;20280;-55
2023/12/24 00:44:05;;;;;;;2.87;1.60;;;2.90;99.90;;;;;;4936918;28;20228;-56
2023/12/24 00:46:31;;;;;;;1.30;1.20;;;2.90;99.90;;;;;;4937458;28;20221;-55
2023/12/24 00:48:56;;;;;;;1.60;1.50;;;3.00;99.90;;;;;;4940694;28;20221;-55
2023/12/24 00:51:22;;;;;;;1.90;1.40;;;3.00;99.90;;;;;;4928375;28;20870;-54
2023/12/24 00:53:48;;;;;;;1.67;1.57;;;2.90;99.90;;;;;;4936029;28;20206;-55
2023/12/24 00:56:13;;;;;;;2.50;2.30;;;3.00;99.90;;;;;;4936066;28;20233;-54
2023/12/24 00:58:39;;;;;;;2.00;1.90;;;3.00;99.90;;;;;;4940720;28;20296;-54
2023/12/24 01:01:04;;;;;;;1.83;1.70;;;3.00;99.90;;;;;;4933003;28;20211;-55
2023/12/24 01:03:30;;;;;;;2.43;2.10;;;3.00;99.90;;;;;;4938158;28;20230;-54
2023/12/24 01:05:55;;;;;;;4.17;2.30;;;3.00;99.90;;;;;;4939691;28;20394;-54
2023/12/24 01:08:20;;;;;;;2.10;1.93;;;3.00;99.90;;;;;;4934726;28;20282;-54
2023/12/24 01:10:48;;;;;;;2.00;1.87;;;3.00;99.90;;;;;;4929465;28;20202;-54
2023/12/24 01:13:18;;;;;;;2.47;2.27;;;2.90;99.90;;;;;;4937316;28;20226;-54
2023/12/24 01:15:46;;;;;;;2.60;2.40;;;2.80;99.90;;;;;;4936676;28;20212;-55
2023/12/24 01:18:12;;;;;;;2.60;2.40;;;2.80;99.90;;;;;;4935348;28;20211;-55
2023/12/24 01:20:38;;;;;;;2.93;2.13;;;2.90;99.90;;;;;;4936978;28;20304;-54
2023/12/24 01:23:04;;;;;;;2.93;2.73;;;2.90;99.90;;;;;;4931977;28;20236;-56
2023/12/24 01:25:29;;;;;;;3.40;3.03;;;2.90;99.90;;;;;;4938576;28;20220;-57
2023/12/24 01:27:55;;;;;;;4.10;2.93;;;2.90;99.90;;;;;;4935808;28;20220;-58
2023/12/24 01:30:20;;;;;;;4.20;2.97;;;2.90;99.90;;;;;;4937994;28;20264;-55
2023/12/24 01:32:46;;;;;;;4.27;3.60;;;2.90;99.90;;;;;;4926791;28;20228;-54
2023/12/24 01:35:11;;;;;;;3.33;3.03;;;2.90;99.90;;;;;;4940802;28;20199;-54
2023/12/24 01:37:37;;;;;;;3.37;3.03;;;2.90;99.90;;;;;;4942869;28;20631;-54
2023/12/24 01:40:02;;;;;;;3.90;3.60;;;3.00;99.90;;;;;;4943516;28;20264;-54
2023/12/24 01:42:28;;;;;;;6.00;4.13;;;3.00;99.90;;;;;;4942444;28;20787;-55
2023/12/24 01:44:53;;;;;;;3.90;3.50;;;3.00;99.90;;;;;;4938515;28;20222;-55
2023/12/24 01:47:19;;;;;;;3.57;3.27;;;3.00;99.90;;;;;;4943705;28;20203;-66
2023/12/24 01:49:45;;;;;;;3.77;3.07;;;3.00;99.90;;;;;;4929962;28;20206;-65
2023/12/24 01:52:12;;;;;;;4.33;3.57;;;3.00;99.90;;;;;;4953802;28;20214;-66
2023/12/24 01:54:37;;;;;;;4.43;3.47;;;2.90;99.90;;;;;;4939029;28;20289;-69
2023/12/24 01:57:04;;;;;;;3.63;3.33;;;2.80;99.90;;;;;;4941699;28;20220;-63
2023/12/24 01:59:32;;;;;;;4.23;3.17;;;2.80;99.90;;;;;;4943389;28;20210;-69
2023/12/24 02:01:58;;;;;;;3.50;3.20;;;2.90;99.90;;;;;;4958698;28;20299;-68
2023/12/24 02:04:23;;;;;;;4.47;3.07;;;3.00;99.90;;;;;;4937350;28;20225;-68
2023/12/24 02:06:50;;;;;;;3.50;3.20;;;3.10;99.90;;;;;;4939100;28;20991;-66
2023/12/24 02:09:16;;;;;;;3.20;2.73;;;3.00;99.90;;;;;;4941425;28;20214;-66
2023/12/24 02:11:42;;;;;;;3.67;2.73;;;2.90;99.90;;;;;;4937101;28;20558;-64
2023/12/24 02:14:08;;;;;;;3.50;3.20;;;2.90;99.90;;;;;;4936524;28;20231;-65
2023/12/24 02:16:38;;;;;;;3.47;3.17;;;2.80;99.90;;;;;;4950921;28;20259;-67
2023/12/24 02:19:04;;;;;;;3.17;2.90;;;2.80;99.90;;;;;;4940046;28;20210;-65
2023/12/24 02:21:30;;;;;;;3.43;3.13;;;2.90;99.90;;;;;;4934677;28;20735;-66
2023/12/24 02:23:55;;;;;;;3.87;3.47;;;2.90;99.90;;;;;;4938794;28;20253;-56
2023/12/24 02:26:37;;;;;;;3.00;2.67;;;3.00;99.90;;;;;;4949653;28;20209;-56
2023/12/24 02:29:12;;;;;;;3.03;2.73;;;2.90;99.90;;;;;;4933998;28;20790;-56
2023/12/24 02:31:42;;;;;;;4.63;3.40;;;2.90;99.90;;;;;;4933058;28;20313;-58
2023/12/24 02:34:11;;;;;;;4.43;4.03;;;3.00;99.90;;;;;;4932250;28;20210;-55
2023/12/24 02:36:38;;;;;;;4.07;3.50;;;2.90;99.90;;;;;;4933512;28;20222;-55
2023/12/24 02:39:04;;;;;;;4.83;4.03;;;2.90;99.90;;;;;;4939940;28;20197;-55
2023/12/24 02:41:29;;;;;;;4.80;3.97;;;3.10;99.90;;;;;;4937198;28;20298;-55
2023/12/24 02:43:55;;;;;;;4.13;3.73;;;3.10;99.90;;;;;;4935775;28;20262;-56
2023/12/24 02:46:20;;;;;;;4.00;3.70;;;3.10;99.90;;;;;;4937613;28;20625;-57
2023/12/24 02:48:46;;;;;;;3.73;3.20;;;3.10;99.90;;;;;;4935808;28;20208;-57
2023/12/24 02:51:11;;;;;;;3.57;3.20;;;3.00;99.90;;;;;;4930768;28;20237;-56
2023/12/24 02:53:37;;;;;;;3.43;3.07;;;3.00;99.90;;;;;;4936117;28;20267;-54
2023/12/24 02:56:02;;;;;;;4.27;3.10;;;3.00;99.90;;;;;;4939672;28;20200;-55
2023/12/24 02:58:28;;;;;;;3.47;3.00;;;2.90;99.90;;;;;;4933367;28;20289;-70
2023/12/24 03:00:53;;;;;;;5.43;3.80;;;2.90;99.90;;;;;;4934376;28;20234;-57
2023/12/24 03:03:19;;;;;;;4.37;3.03;;;2.80;99.90;;;;;;4937997;28;20541;-56
2023/12/24 03:05:44;;;;;;;3.30;3.00;;;2.80;99.90;;;;;;4934820;28;20285;-56
2023/12/24 03:08:10;;;;;;;3.07;2.77;;;2.90;99.90;;;;;;4936522;28;20210;-57
2023/12/24 03:10:35;;;;;;;3.03;2.50;;;2.90;99.90;;;;;;4934994;28;20212;-55
2023/12/24 03:13:01;;;;;;;3.90;3.17;;;3.00;99.90;;;;;;4935022;28;20240;-67
2023/12/24 03:15:27;;;;;;;3.07;2.87;;;2.90;99.90;;;;;;4934520;28;20217;-55
2023/12/24 03:17:52;;;;;;;3.20;2.47;;;2.90;99.90;;;;;;4942568;28;20208;-56
2023/12/24 03:20:18;;;;;;;4.07;3.03;;;2.90;99.90;;;;;;4935270;28;20239;-56
2023/12/24 03:22:43;;;;;;;2.63;2.27;;;2.90;99.90;;;;;;4936012;28;20680;-63
2023/12/24 03:25:09;;;;;;;2.10;1.90;;;2.90;99.90;;;;;;4930908;28;20212;-54
2023/12/24 03:27:34;;;;;;;2.80;2.60;;;2.90;99.90;;;;;;4933557;28;20289;-54
2023/12/24 03:30:00;;;;;;;2.33;2.13;;;2.90;99.90;;;;;;4932074;28;20236;-54
2023/12/24 03:32:25;;;;;;;2.50;2.30;;;2.90;99.90;;;;;;4927131;28;20260;-55
2023/12/24 03:34:50;;;;;;;2.60;2.30;;;2.90;99.90;;;;;;4933890;28;20217;-54
2023/12/24 03:37:16;;;;;;;2.60;2.10;;;2.90;99.90;;;;;;4934593;28;20203;-55
2023/12/24 03:39:41;;;;;;;2.93;2.50;;;2.90;99.90;;;;;;4936872;28;20269;-55
2023/12/24 03:42:07;;;;;;;3.80;2.73;;;2.90;99.90;;;;;;4938682;28;20756;-53
2023/12/24 03:44:32;;;;;;;3.10;2.80;;;3.00;99.90;;;;;;4934362;28;20248;-53
2023/12/24 03:46:58;;;;;;;2.73;2.53;;;3.00;99.90;;;;;;4937268;28;20211;-55
2023/12/24 03:49:23;;;;;;;2.70;2.40;;;3.00;99.90;;;;;;4933524;28;20961;-54
2023/12/24 03:51:49;;;;;;;2.50;1.87;;;2.90;99.90;;;;;;4936202;28;20353;-55
2023/12/24 03:54:15;;;;;;;2.00;1.90;;;2.90;99.90;;;;;;4934646;28;20209;-55
2023/12/24 03:56:41;;;;;;;2.23;2.00;;;2.80;99.90;;;;;;4936088;28;20194;-54
2023/12/24 03:59:06;;;;;;;2.03;1.93;;;2.70;99.90;;;;;;4936111;28;20244;-55
2023/12/24 04:01:32;;;;;;;2.10;1.90;;;2.60;99.90;;;;;;4938399;28;20283;-63
2023/12/24 04:03:57;;;;;;;2.50;2.30;;;2.60;99.90;;;;;;4933542;28;20230;-62
2023/12/24 04:06:23;;;;;;;2.10;1.90;;;2.60;99.90;;;;;;4934108;28;20441;-61
2023/12/24 04:08:48;;;;;;;2.77;2.57;;;2.50;99.90;;;;;;4933892;28;20737;-67
2023/12/24 04:11:16;;;;;;;2.50;2.30;;;2.60;99.90;;;;;;4932678;28;21021;-63
2023/12/24 04:13:42;;;;;;;2.30;2.10;;;2.70;99.90;;;;;;4933627;28;20220;-63
2023/12/24 04:16:08;;;;;;;2.17;1.97;;;2.70;99.90;;;;;;4932955;28;20236;-64
2023/12/24 04:18:34;;;;;;;2.43;2.23;;;2.70;99.90;;;;;;4933919;28;20205;-54
2023/12/24 04:20:59;;;;;;;2.00;1.87;;;2.80;99.90;;;;;;4935341;28;20205;-54
2023/12/24 04:23:25;;;;;;;2.00;1.90;;;2.80;99.90;;;;;;4935063;28;20914;-65
2023/12/24 04:25:51;;;;;;;3.73;2.23;;;2.80;99.90;;;;;;4933662;28;20330;-65
2023/12/24 04:28:17;;;;;;;2.20;1.87;;;3.00;99.90;;;;;;4931080;28;20567;-53
2023/12/24 04:30:42;;;;;;;1.83;1.73;;;3.00;99.90;;;;;;4935296;28;20244;-56
2023/12/24 04:33:08;;;;;;;2.43;2.20;;;3.00;99.90;;;;;;4929027;28;20688;-55
2023/12/24 04:35:33;;;;;;;1.63;1.53;;;3.10;99.90;;;;;;4932407;28;20287;-54
2023/12/24 04:37:59;;;;;;;1.63;1.53;;;3.00;99.90;;;;;;4932934;28;20254;-55
2023/12/24 04:40:25;;;;;;;1.90;1.80;;;3.00;99.90;;;;;;4934515;28;20255;-55
2023/12/24 04:42:52;;;;;;;2.30;2.10;;;3.10;99.90;;;;;;4937256;28;20198;-54
2023/12/24 04:45:17;;;;;;;1.90;1.80;;;3.10;99.90;;;;;;4932571;28;20222;-54
2023/12/24 04:47:43;;;;;;;1.90;1.80;;;3.10;99.90;;;;;;4935417;28;20207;-56
2023/12/24 04:50:09;;;;;;;1.77;1.67;;;3.20;99.90;;;;;;4930651;28;20203;-54
2023/12/24 04:52:38;;;;;;;1.63;1.53;;;3.10;99.90;;;;;;4934429;28;20213;-54
2023/12/24 04:55:07;;;;;;;1.70;1.60;;;3.10;99.90;;;;;;4933835;28;20211;-56
2023/12/24 04:57:33;;;;;;;1.70;1.60;;;3.10;99.90;;;;;;4934011;28;21112;-54
2023/12/24 04:59:58;;;;;;;1.70;1.60;;;3.10;99.90;;;;;;4932150;28;20208;-54
2023/12/24 05:02:24;;;;;;;1.73;1.40;;;3.20;99.90;;;;;;4932323;28;20928;-54
2023/12/24 05:04:50;;;;;;;1.33;1.33;;;3.20;99.90;;;;;;4936862;28;20720;-54
2023/12/24 05:07:15;;;;;;;2.00;1.73;;;3.20;99.90;;;;;;4932879;28;20572;-54
2023/12/24 05:09:42;;;;;;;1.90;1.80;;;3.10;99.90;;;;;;4934919;28;20217;-55
2023/12/24 05:12:08;;;;;;;1.80;1.70;;;3.20;99.90;;;;;;4933989;28;20203;-54
2023/12/24 05:14:34;;;;;;;1.90;1.80;;;3.30;99.90;;;;;;4935494;28;20590;-54
2023/12/24 05:17:00;;;;;;;1.50;1.40;;;3.30;99.90;;;;;;4933164;28;20200;-53
2023/12/24 05:19:25;;;;;;;1.90;1.80;;;3.30;99.90;;;;;;4934415;28;20278;-57
2023/12/24 05:21:51;;;;;;;2.13;2.03;;;3.30;99.90;;;;;;4934846;28;20622;-53
2023/12/24 05:24:16;;;;;;;2.10;2.00;;;3.30;99.90;;;;;;4929425;28;20223;-53
2023/12/24 05:26:42;;;;;;;1.90;1.80;;;3.30;99.90;;;;;;4932325;28;20227;-54
2023/12/24 05:29:07;;;;;;;2.00;1.90;;;3.40;99.90;;;;;;4936316;28;20208;-55
2023/12/24 05:31:40;;;;;;;2.37;2.17;;;3.40;99.90;;;;;;4932436;28;20689;-54
2023/12/24 05:34:06;;;;;;;2.57;2.47;;;3.40;99.90;;;;;;4934425;28;20214;-55
2023/12/24 05:36:33;;;;;;;2.70;2.53;;;3.50;99.90;;;;;;4931795;28;20712;-53
2023/12/24 05:38:59;;;;;;;2.70;2.50;;;3.60;99.90;;;;;;4931532;28;20200;-54
2023/12/24 05:41:24;;;;;;;2.00;1.90;;;3.60;99.90;;;;;;4934826;28;20229;-55
2023/12/24 05:43:50;;;;;;;2.50;2.30;;;3.60;99.90;;;;;;4933247;28;20307;-55
2023/12/24 05:46:15;;;;;;;3.00;2.70;;;3.70;99.90;;;;;;4932731;28;21054;-55
2023/12/24 05:48:41;;;;;;;2.63;2.43;;;3.70;99.90;;;;;;4934469;28;20210;-54
2023/12/24 05:51:07;;;;;;;2.80;2.60;;;3.80;99.90;;;;;;4940704;28;20206;-53
2023/12/24 05:53:33;;;;;;;3.30;3.10;;;3.80;99.90;;;;;;4943187;28;20234;-54
2023/12/24 05:55:59;;;;;;;3.40;2.87;;;3.80;99.90;;;;;;4944451;28;20658;-53
2023/12/24 05:58:25;;;;;;;2.97;2.77;;;3.90;99.90;;;;;;4942629;28;20202;-55
2023/12/24 06:00:54;;;;;;;3.20;2.87;;;4.00;99.90;;;;;;4941943;28;20231;-54
2023/12/24 06:03:20;;;;;;;3.00;2.80;;;4.10;99.90;;;;;;4943471;28;20696;-54
2023/12/24 06:05:46;;;;;;;3.00;2.80;;;4.10;99.90;;;;;;4945486;28;20188;-54
2023/12/24 06:08:17;;;;;;;3.03;2.83;;;4.20;99.90;;;;;;4942551;28;20198;-54
2023/12/24 06:10:44;;;;;;;3.10;2.90;;;4.30;99.90;;;;;;4940292;28;20192;-53
2023/12/24 06:13:10;;;;;;;3.03;2.83;;;4.20;99.90;;;;;;4940850;28;20317;-54
2023/12/24 06:15:36;;;;;;;3.37;3.10;;;4.30;99.90;;;;;;4945761;28;20186;-54
2023/12/24 06:18:01;;;;;;;3.57;3.27;;;4.40;99.90;;;;;;4946107;28;20203;-54
2023/12/24 06:20:31;;;;;;;3.97;3.57;;;4.50;99.90;;;;;;4959089;28;21182;-54
2023/12/24 06:22:56;;;;;;;3.60;3.30;;;4.60;99.90;;;;;;4948883;28;20372;-54
2023/12/24 06:25:22;;;;;;;3.80;3.50;;;4.60;99.90;;;;;;4946510;28;20425;-54
2023/12/24 06:27:47;;;;;;;3.33;3.03;;;4.70;99.90;;;;;;4950833;28;20198;-54
2023/12/24 06:30:14;;;;;;;3.80;2.93;;;4.90;99.90;;;;;;4951443;28;20772;-54
2023/12/24 06:32:41;;;;;;;2.93;2.73;;;5.00;99.90;;;;;;4943862;28;20199;-54
2023/12/24 06:35:08;;;;;;;2.50;2.30;;;5.20;99.90;;;;;;4936338;28;20210;-53
2023/12/24 06:37:33;;;;;;;2.30;2.20;;;5.50;99.90;;;;;;4951547;28;20255;-54
2023/12/24 06:39:59;;;;;;;1.60;1.50;;;5.80;99.90;;;;;;4948844;28;20213;-53
2023/12/24 06:42:24;;;;;;;2.10;1.90;;;6.00;99.90;;;;;;4945163;28;20199;-53
2023/12/24 06:44:50;;;;;;;1.80;1.70;;;6.30;99.90;;;;;;4956983;28;20240;-53
2023/12/24 06:47:15;;;;;;;2.63;1.47;;;6.60;99.90;;;;;;4949432;28;20213;-53
2023/12/24 06:49:44;;;;;;;1.50;1.40;;;6.80;99.90;;;;;;4947094;28;20206;-54
2023/12/24 06:52:12;;;;;;;1.50;1.40;;;6.90;99.90;;;;;;4942773;28;20213;-54
2023/12/24 06:54:38;;;;;;;1.97;1.87;;;7.00;99.90;;;;;;4952445;28;20229;-54
2023/12/24 06:57:06;;;;;;;2.00;1.50;;;7.10;99.90;;;;;;4949902;28;20690;-53
2023/12/24 06:59:32;;;;;;;1.73;1.63;;;7.20;99.90;;;;;;4950444;28;20217;-53
2023/12/24 07:01:57;;;;;;;1.93;1.83;;;7.30;99.90;;;;;;4949440;28;21003;-53
2023/12/24 07:04:23;;;;;;;1.70;1.60;;;7.40;99.90;;;;;;4948637;28;20777;-54
2023/12/24 07:06:48;;;;;;;1.73;1.63;;;7.40;99.90;;;;;;4943143;28;20201;-54
2023/12/24 07:09:14;;;;;;;1.50;1.40;;;7.40;99.90;;;;;;4944287;28;20221;-55
2023/12/24 07:11:39;;;;;;;1.63;1.53;;;7.50;99.90;;;;;;4951330;28;20190;-54
2023/12/24 07:14:05;;;;;;;2.40;2.20;;;7.50;99.90;;;;;;4943457;28;20317;-54
2023/12/24 07:16:30;;;;;;;1.67;1.57;;;7.50;99.90;;;;;;4955916;28;20233;-54
2023/12/24 07:18:57;;;;;;;2.00;1.90;;;7.60;99.90;;;;;;4946468;28;20210;-55
2023/12/24 07:21:23;;;;;;;2.50;2.30;;;7.60;99.90;;;;;;4941665;28;20197;-54
2023/12/24 07:23:48;;;;;;;2.43;2.23;;;7.60;99.90;;;;;;4948574;28;20230;-54
2023/12/24 07:26:14;;;;;;;2.70;2.50;;;7.60;99.90;;;;;;4952203;28;20190;-54
2023/12/24 07:28:39;;;;;;;2.67;2.47;;;7.60;99.90;;;;;;4952750;28;20198;-54
2023/12/24 07:31:04;;;;;;;3.50;2.73;;;7.60;99.90;;;;;;4935022;28;20741;-54
2023/12/24 07:33:30;;;;;;;3.13;2.83;;;7.70;99.90;;;;;;4944668;28;20213;-54
2023/12/24 07:35:56;;;;;;;3.23;2.93;;;7.70;99.90;;;;;;4949123;28;20734;-54
2023/12/24 07:38:21;;;;;;;2.97;2.77;;;7.70;99.90;;;;;;4950308;28;20582;-55
2023/12/24 07:40:47;;;;;;;3.33;3.03;;;7.70;99.90;;;;;;4959125;28;20655;-54
2023/12/24 07:43:12;;;;;;;3.33;3.03;;;7.80;99.90;;;;;;4943309;28;20230;-55
2023/12/24 07:45:38;;;;;;;3.30;3.00;;;7.80;99.90;;;;;;4950702;28;20841;-54
2023/12/24 07:48:04;;;;;;;3.87;3.17;;;7.90;99.90;;;;;;4946353;28;20278;-55
2023/12/24 07:50:29;;;;;;;3.30;3.00;;;7.80;99.90;;;;;;4944387;28;20273;-55
2023/12/24 07:52:55;;;;;;;4.03;3.73;;;7.90;99.90;;;;;;4942172;28;20307;-54
2023/12/24 07:55:20;;;;;;;3.70;3.40;;;7.90;99.90;;;;;;4946732;28;20214;-53
2023/12/24 07:57:46;;;;;;;4.23;3.83;;;7.90;99.90;;;;;;4951254;28;20734;-53
2023/12/24 08:00:12;;;;;;;4.10;3.80;;;7.90;99.90;;;;;;4949187;28;20792;-54
2023/12/24 08:02:37;;;;;;;6.13;4.50;;;7.90;99.90;;;;;;4943228;28;20605;-53
2023/12/24 08:05:03;;;;;;;5.20;4.70;;;8.00;99.90;;;;;;4957366;28;20239;-65
2023/12/24 08:07:29;;;;;;;4.47;4.07;;;8.00;99.90;;;;;;4947202;28;20273;-66
2023/12/24 08:09:56;;;;;;;5.67;4.83;;;8.00;99.90;;;;;;4945843;28;20884;-67
2023/12/24 08:12:21;;;;;;;5.67;5.17;;;8.00;99.90;;;;;;4954317;28;20260;-55
2023/12/24 08:14:47;;;;;;;5.77;5.17;;;8.10;99.90;;;;;;4950164;28;20201;-54
2023/12/24 08:17:13;;;;;;;5.90;5.40;;;8.10;99.90;;;;;;4943951;28;20198;-54
2023/12/24 08:19:38;;;;;;;5.10;4.60;;;8.10;99.90;;;;;;4941051;28;20208;-56
2023/12/24 08:22:04;;;;;;;4.97;4.57;;;8.10;99.90;;;;;;4944265;28;20198;-56
2023/12/24 08:24:29;;;;;;;5.40;4.90;;;8.10;99.90;;;;;;4944460;28;20220;-54
2023/12/24 08:26:55;;;;;;;5.47;4.97;;;8.10;99.90;;;;;;4945211;28;20309;-54
2023/12/24 08:29:20;;;;;;;5.80;5.20;;;8.10;99.90;;;;;;4943398;28;20202;-57
2023/12/24 08:31:46;;;;;;;5.40;4.77;;;8.20;99.90;;;;;;4945158;28;20210;-55
2023/12/24 08:34:11;;;;;;;7.60;4.73;;;8.10;99.90;;;;;;4939530;28;20302;-55
2023/12/24 08:36:37;;;;;;;6.67;5.20;;;8.20;99.90;;;;;;4943698;28;20614;-55
2023/12/24 08:39:02;;;;;;;8.50;5.63;;;8.30;99.90;;;;;;4941548;28;20277;-54
2023/12/24 08:41:28;;;;;;;6.33;5.73;;;8.20;99.90;;;;;;4944491;28;20190;-56
2023/12/24 08:43:53;;;;;;;6.27;5.67;;;8.20;99.90;;;;;;4940954;28;20304;-55
2023/12/24 08:46:19;;;;;;;6.40;5.80;;;8.20;99.90;;;;;;4946552;28;20683;-55
2023/12/24 08:48:44;;;;;;;7.27;6.13;;;8.20;99.90;;;;;;4942133;28;20217;-55
2023/12/24 08:51:10;;;;;;;6.30;5.67;;;8.20;99.90;;;;;;4943620;28;20225;-55
2023/12/24 08:53:35;;;;;;;6.30;4.37;;;8.30;99.90;;;;;;4942698;28;20228;-54
2023/12/24 08:56:01;;;;;;;5.67;5.17;;;8.30;99.90;;;;;;4944788;28;20218;-55
2023/12/24 08:58:27;;;;;;;6.80;5.50;;;8.30;99.90;;;;;;4942217;28;20206;-54
2023/12/24 09:00:53;;;;;;;5.93;5.37;;;8.40;99.90;;;;;;4945894;28;20186;-54
2023/12/24 09:03:19;;;;;;;5.27;4.77;;;8.50;99.90;;;;;;4943484;28;20202;-55
2023/12/24 09:05:44;;;;;;;4.63;4.23;;;8.50;99.90;;;;;;4945966;28;20190;-55
2023/12/24 09:08:10;;;;;;;5.70;4.97;;;8.40;99.90;;;;;;4942283;28;20596;-54
2023/12/24 09:10:35;;;;;;;4.50;4.13;;;8.50;99.90;;;;;;4943340;28;20190;-55
2023/12/24 09:13:01;;;;;;;5.27;3.70;;;8.50;99.90;;;;;;4943242;28;20218;-55
2023/12/24 09:15:27;;;;;;;5.10;4.60;;;8.50;99.90;;;;;;4942941;28;20182;-55
2023/12/24 09:17:53;;;;;;;4.70;4.30;;;8.60;99.90;;;;;;4942875;28;20389;-54
2023/12/24 09:20:18;;;;;;;4.50;4.10;;;8.60;99.90;;;;;;4941071;28;20202;-55
2023/12/24 09:22:44;;;;;;;4.50;4.10;;;8.60;99.90;;;;;;4944161;28;20561;-54
2023/12/24 09:25:09;;;;;;;4.03;3.67;;;8.60;99.90;;;;;;4946292;28;20259;-55
2023/12/24 09:27:35;;;;;;;3.50;3.20;;;8.60;99.90;;;;;;4943357;28;20212;-54
2023/12/24 09:30:04;;;;;;;3.60;3.30;;;8.60;99.90;;;;;;4941625;28;20300;-55
2023/12/24 09:32:33;;;;;;;3.10;2.90;;;8.70;99.90;;;;;;4941963;28;20183;-55
2023/12/24 09:34:58;;;;;;;2.83;2.60;;;8.70;99.90;;;;;;4941584;28;20657;-53
2023/12/24 09:37:25;;;;;;;2.53;2.33;;;8.70;99.90;;;;;;4942093;28;20213;-55
2023/12/24 09:39:52;;;;;;;2.80;2.60;;;8.80;99.90;;;;;;4941020;28;20229;-55
2023/12/24 09:42:17;;;;;;;2.87;2.17;;;8.80;99.90;;;;;;4943925;28;20201;-55
2023/12/24 09:44:43;;;;;;;2.63;1.70;;;8.80;99.90;;;;;;4942312;28;20214;-56
2023/12/24 09:47:09;;;;;;;2.60;2.10;;;8.80;99.90;;;;;;4943944;28;20283;-55
2023/12/24 09:49:34;;;;;;;1.80;1.70;;;8.80;99.90;;;;;;4938966;28;20556;-55
2023/12/24 09:52:00;;;;;;;1.70;1.60;;;8.80;99.90;;;;;;4944613;28;20214;-65
2023/12/24 09:54:26;;;;;;;1.60;1.50;;;8.80;99.90;;;;;;4941096;28;20208;-55
2023/12/24 09:56:52;;;;;;;1.50;1.40;;;8.90;99.90;;;;;;4942283;28;20668;-55
2023/12/24 09:59:17;;;;;;;2.67;1.60;;;8.80;99.90;;;;;;4950291;28;20228;-55
2023/12/24 10:01:46;;;;;;;2.57;1.40;;;8.80;99.90;;;;;;4954322;28;20557;-55
2023/12/24 10:04:15;;;;;;;1.10;1.10;;;8.90;99.90;;;;;;4946674;28;20241;-61
2023/12/24 10:06:57;;;;;;;1.10;1.10;;;8.90;99.90;;;;;;4942092;28;20265;-56
2023/12/24 10:09:24;;;;;;;1.20;1.20;;;8.80;99.90;;;;;;4948097;28;20202;-57
2023/12/24 10:12:04;;;;;;;1.30;1.20;;;8.80;99.90;;;;;;4945367;28;20207;-54
2023/12/24 10:14:29;;;;;;;1.80;1.10;;;8.90;99.90;;;;;;4946087;28;20226;-58
2023/12/24 10:16:55;;;;;;;1.10;1.00;;;8.90;99.90;;;;;;4942825;28;20285;-58
2023/12/24 10:19:24;;;;;;;3.60;1.20;;;8.90;99.90;;;;;;4941174;28;20271;-54
2023/12/24 10:22:08;;;;;;;0.97;0.93;;;9.00;99.90;;;;;;4956643;28;20190;-53
2023/12/24 10:24:38;;;;;;;2.40;1.00;;;9.00;99.90;;;;;;4944536;28;20519;-55
2023/12/24 10:27:05;;;;;;;1.43;0.80;;;9.10;99.90;;;;;;4946016;28;20221;-54
2023/12/24 10:29:32;;;;;;;0.80;0.80;;;9.00;99.90;;;;;;4946449;28;20761;-54
2023/12/24 10:31:58;;;;;;;1.93;1.83;;;9.00;99.90;;;;;;4946581;28;20185;-56
2023/12/24 10:34:24;;;;;;;1.43;1.33;;;9.10;99.90;;;;;;4940713;28;20259;-55
2023/12/24 10:36:49;;;;;;;1.87;1.30;;;9.10;99.90;;;;;;4947093;28;20317;-54
2023/12/24 10:39:18;;;;;;;0.90;0.90;;;9.10;99.90;;;;;;4946419;28;20289;-53
2023/12/24 10:41:44;;;;;;;2.10;1.20;;;9.10;99.90;;;;;;4943783;28;20203;-55
2023/12/24 10:44:09;;;;;;;1.00;1.00;;;9.10;99.90;;;;;;4944578;28;20210;-55
2023/12/24 10:46:35;;;;;;;0.90;0.90;;;9.20;99.90;;;;;;4955854;28;20202;-56
2023/12/24 10:49:01;;;;;;;1.00;0.90;;;9.20;99.90;;;;;;4945386;28;20209;-55
2023/12/24 10:51:26;;;;;;;1.23;0.90;;;9.20;99.90;;;;;;4942159;28;20182;-55
2023/12/24 10:53:53;;;;;;;0.90;0.90;;;9.10;99.90;;;;;;4952122;28;20237;-55
2023/12/24 10:56:31;;;;;;;0.80;0.80;;;9.10;99.90;;;;;;4947697;28;20537;-55
2023/12/24 10:59:25;;;;;;;0.90;0.90;;;9.20;99.90;;;;;;4944277;28;20256;-55
2023/12/24 11:01:51;;;;;;;0.77;0.77;;;9.20;99.90;;;;;;4947014;28;20219;-56
2023/12/24 11:04:44;;;;;;;1.03;0.93;;;9.30;99.90;;;;;;4942848;28;20214;-55
2023/12/24 11:07:30;;;;;;;1.37;0.93;;;9.30;99.90;;;;;;4948152;28;20179;-54
2023/12/24 11:09:55;;;;;;;0.67;0.67;;;9.30;99.90;;;;;;4946498;28;20264;-54
2023/12/24 11:12:38;;;;;;;0.83;0.83;;;9.40;99.90;;;;;;4951543;28;20318;-55
2023/12/24 11:15:04;;;;;;;0.80;0.70;;;9.30;99.90;;;;;;4952701;28;20209;-54
2023/12/24 11:17:36;;;;;;;0.70;0.70;;;9.40;99.90;;;;;;4953667;28;20197;-55
2023/12/24 11:20:23;;;;;;;1.10;0.90;;;9.30;99.90;;;;;;4945502;28;20281;-55
2023/12/24 11:23:18;;;;;;;0.67;0.67;;;9.30;99.90;;;;;;4954101;28;20231;-54
2023/12/24 11:25:47;;;;;;;1.10;1.00;;;9.20;99.90;;;;;;4955087;28;20234;-54
2023/12/24 11:28:25;;;;;;;0.70;0.70;;;9.30;99.90;;;;;;4948891;28;20194;-54
2023/12/24 11:30:51;;;;;;;1.50;0.90;;;9.20;99.90;;;;;;4951926;28;20246;-56
2023/12/24 11:33:28;;;;;;;1.60;0.83;;;9.30;99.90;;;;;;4942059;28;20905;-56
2023/12/24 11:35:56;;;;;;;1.00;1.00;;;9.20;99.90;;;;;;4947149;28;20209;-55
2023/12/24 11:38:33;;;;;;;1.10;1.00;;;9.20;99.90;;;;;;4944337;28;20198;-54
2023/12/24 11:41:23;;;;;;;1.50;0.80;;;9.20;99.90;;;;;;4946442;28;20711;-53
2023/12/24 11:44:00;;;;;;;0.97;0.97;;;9.30;99.90;;;;;;4940161;28;20280;-53
2023/12/24 11:46:30;;;;;;;0.77;0.70;;;9.30;99.90;;;;;;4947228;28;20202;-54
2023/12/24 11:49:02;;;;;;;0.73;0.73;;;9.30;99.90;;;;;;4941239;28;20336;-54
2023/12/24 11:51:29;;;;;;;0.93;0.90;;;9.30;99.90;;;;;;4961966;28;20572;-56
2023/12/24 11:54:03;;;;;;;0.70;0.70;;;9.30;99.90;;;;;;4943511;28;20668;-55
2023/12/24 11:56:29;;;;;;;0.83;0.83;;;9.30;99.90;;;;;;4945611;28;20219;-69
2023/12/24 11:58:54;;;;;;;0.87;0.87;;;9.30;99.90;;;;;;4950192;28;20627;-55
2023/12/24 12:01:24;;;;;;;1.83;1.20;;;9.30;99.90;;;;;;4952526;28;20202;-54
2023/12/24 12:04:00;;;;;;;1.07;0.70;;;9.30;99.90;;;;;;4952098;28;20219;-54
2023/12/24 12:06:27;;;;;;;2.53;0.80;;;9.30;99.90;;;;;;4943138;28;20575;-54
2023/12/24 12:08:53;;;;;;;1.77;1.63;;;9.30;99.90;;;;;;4942422;28;20239;-56
2023/12/24 12:11:19;;;;;;;1.67;1.63;;;9.30;99.90;;;;;;4939621;28;20187;-55
2023/12/24 12:13:45;;;;;;;1.27;0.97;;;9.30;99.90;;;;;;4946124;28;20512;-54
2023/12/24 12:16:10;;;;;;;1.30;1.20;;;9.30;99.90;;;;;;4944383;28;20257;-55
2023/12/24 12:18:36;;;;;;;1.13;1.03;;;9.20;99.90;;;;;;4942373;28;20220;-56
2023/12/24 12:21:01;;;;;;;0.97;0.90;;;9.30;99.90;;;;;;4943895;28;20193;-55
2023/12/24 12:23:27;;;;;;;0.93;0.93;;;9.30;99.90;;;;;;4944531;28;20206;-55
2023/12/24 12:25:52;;;;;;;1.30;1.23;;;9.40;99.90;;;;;;4944316;28;20229;-55
2023/12/24 12:28:18;;;;;;;1.30;1.20;;;9.40;99.90;;;;;;4945075;28;20199;-55
2023/12/24 12:30:45;;;;;;;0.93;0.93;;;9.40;99.90;;;;;;4951923;28;20527;-54
2023/12/24 12:33:11;;;;;;;0.90;0.90;;;9.30;99.90;;;;;;4946076;28;20187;-55
2023/12/24 12:35:37;;;;;;;1.80;1.40;;;9.30;99.90;;;;;;4951289;28;20273;-54
2023/12/24 12:38:03;;;;;;;1.10;1.10;;;9.40;99.90;;;;;;4950679;28;20204;-53
2023/12/24 12:40:29;;;;;;;1.70;1.37;;;9.40;99.90;;;;;;4951230;28;20179;-55
2023/12/24 12:42:55;;;;;;;1.20;1.20;;;9.40;99.90;;;;;;4947792;28;20286;-54
2023/12/24 12:45:21;;;;;;;1.00;1.00;;;9.40;99.90;;;;;;4941441;28;20232;-54
2023/12/24 12:47:46;;;;;;;1.40;1.30;;;9.40;99.90;;;;;;4932056;28;20668;-57
2023/12/24 12:50:12;;;;;;;1.00;1.00;;;9.40;99.90;;;;;;4927067;28;20710;-58
2023/12/24 12:52:38;;;;;;;1.30;1.30;;;9.50;99.90;;;;;;4933227;28;20615;-57
2023/12/24 12:55:08;;;;;;;1.40;1.30;;;9.70;99.90;;;;;;4949395;28;20228;-54